Kezdőlap
METAR-TAF:

METAR-TAF

Repülőterek :

Lappeenranta, Finnország

földrajzi szélesség: 61-02-45N, földrajzi hosszúság: 028-08-55E, magasság: 106 m

Jelenlegi meteorológiai megfigyelések

A jelentés 25 perccel ezelõtt készült, 10:20 UTC
Dél-délkeleti szél 3 kt
Hőmérséklet 4°C
Páratartalom 93%
Légköri nyomás 993 hPa
Látótávolság 10 km, vagy több
Szakadozott felhőzet 2700 lábon

METAR: EFLP 231020Z 16003KT 9999 BKN027 04/03 Q0993

Idő: 13:45 (10:45 UTC)

Előrejelzés

A jelentés 2 órával és 18 perccel ezelõtt készült, 08:27 UTC
Az előrejelzés 23-én 09 óra UTC és 23-én 18 óra UTC között érvényes
Délkeleti szél 2 kt
Látótávolság 10 km, vagy több
Kevés felhő 2000 lábon
23-én 10 óra UTC és 23-én 15 óra UTC között ideiglenes
Látótávolság: 6000 m
Szakadozott felhőzet 1000 lábon
Szórványos felhőzet 2000 lábon, Cumulonimbus.
záporok

TAF: EFLP 230827Z 2309/2318 14002KT 9999 FEW020 TEMPO 2310/2315 6000 SHRA BKN010 SCT020CB

Meteorológiai megfigyelések és előrejelzések több, mint 4000 repülőtéren (METAR és TAF jelentéseket).

A térképen piros és sárga pontok jelzik az elérhető meteorológiai állomásokat.

Mozgassa az egeret a pont fölött, hogy megjelenjen az állomás neve.

Azután kattintson az időjárási megfigyelések és előrejelzések megtekintéséhez.

A térkép megváltoztatása: kattintson a fekete keresztel jelölt zöld gombra ráközelítéshez, a vonallal jelölt zöld gombra távolításhoz, vagy a zöld nyilakra a szomszédos térképek eléréséhez.


METAR-TAF: